| time (UTC) | temp C | wind direction | speed KPH | gust KPH | rain 1hr cm | rain 24hr cm | rain mn cm | humidity % | barometer mb |
| 20260508213650 | 23 | 346 | 6.4 | 8.0 | 0.00 | 0.00 | 0.00 | 24 | 1016.5 |
| 20260508213146 | 23 | 332 | 4.8 | 8.0 | 0.00 | 0.00 | 0.00 | 23 | 1016.5 |
| 20260508212643 | 23 | 275 | 8.0 | 12.9 | 0.00 | 0.00 | 0.00 | 25 | 1016.1 |
| 20260508212140 | 23 | 322 | 6.4 | 9.7 | 0.00 | 0.00 | 0.00 | 24 | 1016.5 |
| 20260508211635 | 23 | 232 | 1.6 | 3.2 | 0.00 | 0.00 | 0.00 | 23 | 1016.5 |
| 20260508211131 | 23 | 187 | 3.2 | 3.2 | 0.00 | 0.00 | 0.00 | 24 | 1016.5 |
| 20260508210628 | 23 | 46 | 8.0 | 9.7 | 0.00 | 0.00 | 0.00 | 23 | 1016.5 |
| 20260508210126 | 23 | 298 | 8.0 | 11.3 | 0.00 | 0.00 | 0.00 | 23 | 1016.5 |
| 20260508205623 | 24 | 328 | 1.6 | 3.2 | 0.00 | 0.00 | 0.00 | 24 | 1016.5 |
| 20260508205119 | 23 | 172 | 1.6 | 1.6 | 0.00 | 0.00 | 0.00 | 24 | 1016.5 |
| 20260508204615 | 23 | 265 | 6.4 | 8.0 | 0.00 | 0.00 | 0.00 | 23 | 1016.9 |
| 20260508204112 | 23 | 238 | 6.4 | 8.0 | 0.00 | 0.00 | 0.00 | 23 | 1016.9 |
| 20260508203608 | 23 | 295 | 4.8 | 4.8 | 0.00 | 0.00 | 0.00 | 23 | 1016.9 |
| 20260508203104 | 23 | 308 | 6.4 | 9.7 | 0.00 | 0.00 | 0.00 | 23 | 1016.9 |
| 20260508202600 | 23 | 296 | 8.0 | 9.7 | 0.00 | 0.00 | 0.00 | 23 | 1016.9 |
| 20260508202058 | 23 | 247 | 8.0 | 11.3 | 0.00 | 0.00 | 0.00 | 24 | 1016.9 |
| 20260508201554 | 22 | 190 | 3.2 | 3.2 | 0.00 | 0.00 | 0.00 | 23 | 1016.9 |
| 20260508201051 | 22 | 263 | 8.0 | 9.7 | 0.00 | 0.00 | 0.00 | 24 | 1017.7 |
| 20260508200548 | 22 | 290 | 8.0 | 9.7 | 0.00 | 0.00 | 0.00 | 23 | 1016.9 |
| 20260508200044 | 23 | 266 | 8.0 | 9.7 | 0.00 | 0.00 | 0.00 | 24 | 1017.2 |
| 20260508195541 | 23 | 195 | 3.2 | 3.2 | 0.00 | 0.00 | 0.00 | 24 | 1016.5 |
| 20260508195037 | 23 | 271 | 3.2 | 8.0 | 0.00 | 0.00 | 0.00 | 25 | 1016.9 |
| 20260508194534 | 22 | 36 | 4.8 | 4.8 | 0.00 | 0.00 | 0.00 | 25 | 1016.9 |
| 20260508194031 | 22 | 187 | 3.2 | 3.2 | 0.00 | 0.00 | 0.00 | 26 | 1016.9 |
| 20260508193527 | 22 | 286 | 8.0 | 11.3 | 0.00 | 0.00 | 0.00 | 26 | 1017.2 |
| 20260508193024 | 22 | 261 | 11.3 | 14.5 | 0.00 | 0.00 | 0.00 | 25 | 1016.9 |
| 20260508192521 | 22 | 331 | 4.8 | 4.8 | 0.00 | 0.00 | 0.00 | 26 | 1016.9 |
| 20260508192018 | 22 | 156 | 4.8 | 8.0 | 0.00 | 0.00 | 0.00 | 26 | 1017.2 |
| 20260508191515 | 22 | 262 | 4.8 | 4.8 | 0.00 | 0.00 | 0.00 | 27 | 1017.2 |
| 20260508191011 | 22 | 292 | 3.2 | 4.8 | 0.00 | 0.00 | 0.00 | 27 | 1017.2 |
| 20260508190509 | 22 | 174 | 1.6 | 3.2 | 0.00 | 0.00 | 0.00 | 27 | 1017.7 |
| 20260508190005 | 22 | 68 | 1.6 | 3.2 | 0.00 | 0.00 | 0.00 | 29 | 1017.2 |
| 20260508185502 | 22 | 203 | 3.2 | 3.2 | 0.00 | 0.00 | 0.00 | 28 | 1017.7 |
| 20260508185000 | 22 | 357 | 4.8 | 4.8 | 0.00 | 0.00 | 0.00 | 27 | 1017.2 |
| 20260508184457 | 22 | 294 | 9.7 | 11.3 | 0.00 | 0.00 | 0.00 | 26 | 1017.7 |
| 20260508183954 | 22 | 224 | 4.8 | 4.8 | 0.00 | 0.00 | 0.00 | 28 | 1017.7 |
| 20260508183450 | 21 | 148 | 0.0 | 1.6 | 0.00 | 0.00 | 0.00 | 26 | 1017.7 |
| 20260508182945 | 22 | 302 | 8.0 | 9.7 | 0.00 | 0.00 | 0.00 | 28 | 1017.7 |
| 20260508182443 | 22 | 262 | 4.8 | 8.0 | 0.00 | 0.00 | 0.00 | 27 | 1017.7 |
| 20260508181938 | 22 | 21 | 4.8 | 8.0 | 0.00 | 0.00 | 0.00 | 26 | 1017.7 |
| 20260508181435 | 22 | 317 | 8.0 | 11.3 | 0.00 | 0.00 | 0.00 | 29 | 1017.7 |
| 20260508180933 | 21 | 321 | 4.8 | 4.8 | 0.00 | 0.00 | 0.00 | 28 | 1017.7 |
| 20260508180429 | 22 | 259 | 6.4 | 8.0 | 0.00 | 0.00 | 0.00 | 27 | 1017.7 |
| 20260508175925 | 21 | 183 | 1.6 | 1.6 | 0.00 | 0.00 | 0.00 | 29 | 1017.7 |
| 20260508175422 | 22 | 258 | 4.8 | 8.0 | 0.00 | 0.00 | 0.00 | 28 | 1017.7 |
| 20260508174920 | 22 | 13 | 6.4 | 8.0 | 0.00 | 0.00 | 0.00 | 30 | 1017.7 |
| 20260508174417 | 21 | 258 | 4.8 | 8.0 | 0.00 | 0.00 | 0.00 | 32 | 1017.7 |
| 20260508173914 | 21 | 249 | 3.2 | 3.2 | 0.00 | 0.00 | 0.00 | 30 | 1017.7 |
| 20260508173411 | 21 | 208 | 6.4 | 8.0 | 0.00 | 0.00 | 0.00 | 31 | 1018.0 |
| 20260508172906 | 21 | 335 | 4.8 | 8.0 | 0.00 | 0.00 | 0.00 | 34 | 1017.7 |
| 20260508172405 | 21 | 293 | 3.2 | 3.2 | 0.00 | 0.00 | 0.00 | 35 | 1017.7 |
| 20260508171900 | 21 | 235 | 1.6 | 3.2 | 0.00 | 0.00 | 0.00 | 33 | 1018.0 |
| 20260508171357 | 21 | 228 | 4.8 | 4.8 | 0.00 | 0.00 | 0.00 | 33 | 1017.7 |
| 20260508170853 | 21 | 201 | 0.0 | 1.6 | 0.00 | 0.00 | 0.00 | 33 | 1017.7 |
| 20260508170351 | 21 | 123 | 0.0 | 1.6 | 0.00 | 0.00 | 0.00 | 33 | 1017.7 |
| 20260508165847 | 21 | 247 | 3.2 | 4.8 | 0.00 | 0.00 | 0.00 | 33 | 1017.7 |
| 20260508165345 | 22 | 155 | 3.2 | 3.2 | 0.00 | 0.00 | 0.00 | 30 | 1017.7 |
| 20260508164841 | 22 | 120 | 3.2 | 3.2 | 0.00 | 0.00 | 0.00 | 31 | 1017.7 |
| 20260508164338 | 21 | 208 | 3.2 | 3.2 | 0.00 | 0.00 | 0.00 | 33 | 1017.7 |
| 20260508163836 | 21 | 145 | 4.8 | 4.8 | 0.00 | 0.00 | 0.00 | 33 | 1017.7 |
| 20260508163334 | 20 | 119 | 1.6 | 3.2 | 0.00 | 0.00 | 0.00 | 34 | 1017.7 |
| 20260508162829 | 20 | 248 | 3.2 | 3.2 | 0.00 | 0.00 | 0.00 | 34 | 1017.7 |
| 20260508162326 | 20 | 87 | 3.2 | 3.2 | 0.00 | 0.00 | 0.00 | 35 | 1017.2 |
| 20260508161823 | 20 | 174 | 3.2 | 3.2 | 0.00 | 0.00 | 0.00 | 33 | 1017.7 |
| 20260508161320 | 20 | 100 | 0.0 | 0.0 | 0.00 | 0.00 | 0.00 | 34 | 1017.7 |
| 20260508160817 | 20 | 217 | 3.2 | 3.2 | 0.00 | 0.00 | 0.00 | 35 | 1017.2 |
| 20260508160316 | 20 | 173 | 3.2 | 4.8 | 0.00 | 0.00 | 0.00 | 35 | 1017.2 |
| 20260508155812 | 20 | 192 | 3.2 | 3.2 | 0.00 | 0.00 | 0.00 | 34 | 1017.2 |
| 20260508155309 | 21 | 239 | 3.2 | 3.2 | 0.00 | 0.00 | 0.00 | 35 | 1017.2 |
| 20260508154805 | 21 | 152 | 0.0 | 0.0 | 0.00 | 0.00 | 0.00 | 31 | 1017.2 |
| 20260508154303 | 21 | 135 | 0.0 | 0.0 | 0.00 | 0.00 | 0.00 | 32 | 1017.2 |
| 20260508153759 | 21 | 138 | 0.0 | 0.0 | 0.00 | 0.00 | 0.00 | 34 | 1016.9 |
| 20260508153257 | 22 | 157 | 1.6 | 3.2 | 0.00 | 0.00 | 0.00 | 32 | 1016.9 |
| 20260508152753 | 21 | 157 | 0.0 | 0.0 | 0.00 | 0.00 | 0.00 | 35 | 1017.2 |
| 20260508152249 | 19 | 167 | 0.0 | 0.0 | 0.00 | 0.00 | 0.00 | 35 | 1016.9 |
| 20260508151745 | 18 | 166 | 0.0 | 0.0 | 0.00 | 0.00 | 0.00 | 37 | 1017.2 |
| 20260508151243 | 20 | 163 | 0.0 | 0.0 | 0.00 | 0.00 | 0.00 | 36 | 1016.9 |
| 20260508150739 | 20 | 165 | 0.0 | 0.0 | 0.00 | 0.00 | 0.00 | 34 | 1016.9 |
| 20260508150236 | 19 | 153 | 0.0 | 0.0 | 0.00 | 0.00 | 0.00 | 36 | 1016.9 |
| 20260508145732 | 18 | 139 | 0.0 | 0.0 | 0.00 | 0.00 | 0.00 | 37 | 1016.9 |
| 20260508145229 | 17 | 166 | 0.0 | 0.0 | 0.00 | 0.00 | 0.00 | 39 | 1016.9 |
| 20260508144726 | 17 | 166 | 0.0 | 0.0 | 0.00 | 0.00 | 0.00 | 39 | 1017.2 |
| 20260508144224 | 17 | 175 | 1.6 | 1.6 | 0.00 | 0.00 | 0.00 | 37 | 1016.9 |
| 20260508143721 | 16 | 203 | 1.6 | 1.6 | 0.00 | 0.00 | 0.00 | 41 | 1017.2 |
| 20260508143218 | 17 | 181 | 1.6 | 1.6 | 0.00 | 0.00 | 0.00 | 41 | 1016.9 |
| 20260508142714 | 18 | 177 | 1.6 | 3.2 | 0.00 | 0.00 | 0.00 | 40 | 1016.9 |
| 20260508142211 | 18 | 144 | 0.0 | 1.6 | 0.00 | 0.00 | 0.00 | 36 | 1016.9 |
| 20260508141707 | 18 | 144 | 0.0 | 1.6 | 0.00 | 0.00 | 0.00 | 36 | 1016.9 |
| 20260508141205 | 18 | 154 | 0.0 | 0.0 | 0.00 | 0.00 | 0.00 | 38 | 1016.9 |
| 20260508140702 | 17 | 166 | 0.0 | 0.0 | 0.00 | 0.00 | 0.00 | 39 | 1016.9 |
| 20260508140159 | 16 | 168 | 0.0 | 0.0 | 0.00 | 0.00 | 0.00 | 40 | 1016.9 |
| 20260508135655 | 16 | 144 | 0.0 | 0.0 | 0.00 | 0.00 | 0.00 | 40 | 1016.5 |
| 20260508135150 | 15 | 150 | 0.0 | 0.0 | 0.00 | 0.00 | 0.00 | 42 | 1016.5 |
| 20260508134647 | 15 | 153 | 0.0 | 0.0 | 0.00 | 0.00 | 0.00 | 42 | 1016.5 |
| 20260508134144 | 15 | 142 | 0.0 | 0.0 | 0.00 | 0.00 | 0.00 | 43 | 1016.5 |
| 20260508133641 | 15 | 138 | 0.0 | 1.6 | 0.00 | 0.00 | 0.00 | 43 | 1016.5 |
| 20260508133138 | 15 | 147 | 1.6 | 3.2 | 0.00 | 0.00 | 0.00 | 42 | 1016.5 |
| 20260508132636 | 15 | 155 | 0.0 | 0.0 | 0.00 | 0.00 | 0.00 | 43 | 1016.5 |
| 20260508132133 | 14 | 164 | 0.0 | 0.0 | 0.00 | 0.00 | 0.00 | 44 | 1016.1 |
| 20260508131628 | 13 | 164 | 0.0 | 0.0 | 0.00 | 0.00 | 0.00 | 45 | 1016.5 |
| 20260508131125 | 13 | 165 | 0.0 | 0.0 | 0.00 | 0.00 | 0.00 | 46 | 1016.1 |
| 20260508130622 | 12 | 164 | 0.0 | 0.0 | 0.00 | 0.00 | 0.00 | 47 | 1016.1 |
| 20260508130119 | 12 | 137 | 1.6 | 3.2 | 0.00 | 0.00 | 0.00 | 47 | 1016.5 |
| 20260508125614 | 13 | 171 | 0.0 | 0.0 | 0.00 | 0.00 | 0.00 | 46 | 1016.1 |
| 20260508125112 | 12 | 117 | 1.6 | 1.6 | 0.00 | 0.00 | 0.00 | 46 | 1016.1 |
| 20260508124610 | 12 | 125 | 1.6 | 1.6 | 0.00 | 0.00 | 0.00 | 46 | 1015.7 |
| 20260508124106 | 12 | 149 | 1.6 | 3.2 | 0.00 | 0.00 | 0.00 | 46 | 1016.1 |
| 20260508123605 | 12 | 101 | 0.0 | 1.6 | 0.00 | 0.00 | 0.00 | 48 | 1015.7 |
| 20260508123102 | 12 | 142 | 1.6 | 1.6 | 0.00 | 0.00 | 0.00 | 49 | 1015.7 |
| 20260508122558 | 12 | 148 | 1.6 | 1.6 | 0.00 | 0.00 | 0.00 | 48 | 1015.7 |
| 20260508122055 | 12 | 140 | 0.0 | 1.6 | 0.00 | 0.00 | 0.00 | 49 | 1015.7 |
| 20260508121553 | 12 | 130 | 3.2 | 3.2 | 0.00 | 0.00 | 0.00 | 48 | 1015.7 |
| 20260508121051 | 12 | 136 | 3.2 | 3.2 | 0.00 | 0.00 | 0.00 | 49 | 1015.7 |
| 20260508120548 | 12 | 120 | 1.6 | 1.6 | 0.00 | 0.00 | 0.00 | 48 | 1015.7 |
| 20260508120047 | 13 | 126 | 3.2 | 3.2 | 0.00 | 0.00 | 0.00 | 47 | 1015.7 |
| 20260508115544 | 13 | 99 | 4.8 | 4.8 | 0.00 | 0.00 | 0.00 | 47 | 1015.7 |
| 20260508115040 | 13 | 118 | 1.6 | 3.2 | 0.00 | 0.00 | 0.00 | 47 | 1015.7 |
| 20260508114537 | 13 | 103 | 3.2 | 4.8 | 0.00 | 0.00 | 0.00 | 47 | 1015.7 |
| 20260508114033 | 13 | 98 | 1.6 | 3.2 | 0.00 | 0.00 | 0.00 | 46 | 1015.7 |
| 20260508113531 | 13 | 125 | 1.6 | 3.2 | 0.00 | 0.00 | 0.00 | 47 | 1015.7 |
| 20260508113029 | 13 | 75 | 3.2 | 3.2 | 0.00 | 0.00 | 0.00 | 47 | 1015.3 |
| 20260508112525 | 13 | 140 | 0.0 | 1.6 | 0.00 | 0.00 | 0.00 | 48 | 1015.7 |
| 20260508112022 | 13 | 89 | 3.2 | 4.8 | 0.00 | 0.00 | 0.00 | 47 | 1015.7 |
| 20260508111519 | 13 | 97 | 4.8 | 4.8 | 0.00 | 0.00 | 0.00 | 47 | 1015.7 |
| 20260508111016 | 13 | 127 | 3.2 | 3.2 | 0.00 | 0.00 | 0.00 | 47 | 1015.7 |
| 20260508110514 | 12 | 125 | 1.6 | 1.6 | 0.00 | 0.00 | 0.00 | 48 | 1015.3 |
| 20260508110009 | 12 | 143 | 0.0 | 0.0 | 0.00 | 0.00 | 0.00 | 48 | 1015.3 |
| 20260508105504 | 12 | 134 | 1.6 | 1.6 | 0.00 | 0.00 | 0.00 | 48 | 1015.3 |
| 20260508105002 | 12 | 145 | 0.0 | 1.6 | 0.00 | 0.00 | 0.00 | 48 | 1015.3 |
| 20260508104500 | 13 | 127 | 1.6 | 1.6 | 0.00 | 0.00 | 0.00 | 47 | 1015.3 |
| 20260508103956 | 13 | 125 | 1.6 | 1.6 | 0.00 | 0.00 | 0.00 | 47 | 1015.3 |
| 20260508103453 | 13 | 111 | 1.6 | 1.6 | 0.00 | 0.00 | 0.00 | 47 | 1015.7 |
| 20260508102949 | 13 | 112 | 4.8 | 4.8 | 0.00 | 0.00 | 0.00 | 47 | 1015.3 |
| 20260508102448 | 13 | 106 | 4.8 | 4.8 | 0.00 | 0.00 | 0.00 | 47 | 1015.3 |
| 20260508101945 | 13 | 125 | 1.6 | 1.6 | 0.00 | 0.00 | 0.00 | 47 | 1014.9 |
| 20260508101443 | 13 | 99 | 1.6 | 3.2 | 0.00 | 0.00 | 0.00 | 47 | 1014.9 |
| 20260508100940 | 13 | 141 | 1.6 | 3.2 | 0.00 | 0.00 | 0.00 | 47 | 1014.9 |
| 20260508100439 | 13 | 100 | 3.2 | 3.2 | 0.00 | 0.00 | 0.00 | 47 | 1014.9 |
| 20260508095934 | 12 | 105 | 1.6 | 1.6 | 0.00 | 0.00 | 0.00 | 48 | 1015.3 |
| 20260508095432 | 12 | 127 | 4.8 | 4.8 | 0.00 | 0.00 | 0.00 | 48 | 1015.3 |
| 20260508094928 | 12 | 146 | 0.0 | 1.6 | 0.00 | 0.00 | 0.00 | 51 | 1014.9 |
| 20260508094425 | 12 | 151 | 0.0 | 0.0 | 0.00 | 0.00 | 0.00 | 50 | 1015.3 |
| 20260508093922 | 12 | 154 | 0.0 | 0.0 | 0.00 | 0.00 | 0.00 | 51 | 1014.9 |
| 20260508093419 | 12 | 156 | 0.0 | 0.0 | 0.00 | 0.00 | 0.00 | 49 | 1014.9 |
| 20260508092917 | 13 | 156 | 0.0 | 0.0 | 0.00 | 0.00 | 0.00 | 49 | 1014.9 |
| 20260508092414 | 13 | 160 | 0.0 | 0.0 | 0.00 | 0.00 | 0.00 | 47 | 1015.3 |
| 20260508091913 | 13 | 180 | 0.0 | 1.6 | 0.00 | 0.00 | 0.00 | 46 | 1014.9 |
| 20260508091409 | 13 | 151 | 1.6 | 1.6 | 0.00 | 0.00 | 0.00 | 45 | 1014.9 |
| 20260508090906 | 13 | 133 | 1.6 | 1.6 | 0.00 | 0.00 | 0.00 | 45 | 1014.6 |
| 20260508090405 | 13 | 130 | 1.6 | 1.6 | 0.00 | 0.00 | 0.00 | 45 | 1014.9 |
| 20260508085900 | 13 | 140 | 1.6 | 1.6 | 0.00 | 0.00 | 0.00 | 45 | 1014.9 |
| 20260508085357 | 13 | 133 | 0.0 | 0.0 | 0.00 | 0.00 | 0.00 | 46 | 1014.9 |
| 20260508084854 | 13 | 158 | 0.0 | 0.0 | 0.00 | 0.00 | 0.00 | 45 | 1014.9 |
| 20260508084350 | 13 | 80 | 0.0 | 0.0 | 0.00 | 0.00 | 0.00 | 45 | 1014.9 |
| 20260508083848 | 13 | 148 | 0.0 | 1.6 | 0.00 | 0.00 | 0.00 | 45 | 1014.9 |
| 20260508083346 | 13 | 141 | 3.2 | 3.2 | 0.00 | 0.00 | 0.00 | 45 | 1014.9 |
| 20260508082845 | 13 | 95 | 1.6 | 3.2 | 0.00 | 0.00 | 0.00 | 45 | 1014.9 |
| 20260508082343 | 13 | 155 | 0.0 | 0.0 | 0.00 | 0.00 | 0.00 | 46 | 1014.9 |
| 20260508081840 | 12 | 136 | 0.0 | 0.0 | 0.00 | 0.00 | 0.00 | 48 | 1014.9 |
| 20260508081337 | 13 | 157 | 0.0 | 0.0 | 0.00 | 0.00 | 0.00 | 49 | 1014.9 |
| 20260508080834 | 13 | 157 | 0.0 | 0.0 | 0.00 | 0.00 | 0.00 | 47 | 1014.9 |
| 20260508080332 | 14 | 175 | 0.0 | 1.6 | 0.00 | 0.00 | 0.00 | 46 | 1015.3 |
| 20260508075828 | 14 | 155 | 0.0 | 1.6 | 0.00 | 0.00 | 0.00 | 43 | 1014.9 |
| 20260508075325 | 14 | 148 | 0.0 | 1.6 | 0.00 | 0.00 | 0.00 | 43 | 1014.6 |
| 20260508074823 | 14 | 137 | 0.0 | 0.0 | 0.00 | 0.00 | 0.00 | 44 | 1014.6 |
| 20260508074320 | 14 | 168 | 0.0 | 0.0 | 0.00 | 0.00 | 0.00 | 44 | 1014.9 |
| 20260508073817 | 15 | 167 | 0.0 | 0.0 | 0.00 | 0.00 | 0.00 | 43 | 1014.9 |
| 20260508073315 | 15 | 88 | 1.6 | 1.6 | 0.00 | 0.00 | 0.00 | 42 | 1014.9 |
| 20260508072811 | 15 | 101 | 3.2 | 3.2 | 0.00 | 0.00 | 0.00 | 42 | 1014.9 |
| 20260508072308 | 15 | 91 | 3.2 | 3.2 | 0.00 | 0.00 | 0.00 | 42 | 1014.6 |
| 20260508071805 | 15 | 105 | 4.8 | 4.8 | 0.00 | 0.00 | 0.00 | 42 | 1014.6 |
| 20260508071303 | 15 | 104 | 1.6 | 3.2 | 0.00 | 0.00 | 0.00 | 41 | 1014.6 |
| 20260508070800 | 15 | 121 | 3.2 | 3.2 | 0.00 | 0.00 | 0.00 | 41 | 1014.6 |
| 20260508070259 | 15 | 122 | 1.6 | 3.2 | 0.00 | 0.00 | 0.00 | 41 | 1014.9 |
| 20260508065756 | 15 | 75 | 1.6 | 3.2 | 0.00 | 0.00 | 0.00 | 41 | 1014.6 |
| 20260508065253 | 15 | 140 | 3.2 | 3.2 | 0.00 | 0.00 | 0.00 | 40 | 1014.6 |
| 20260508064751 | 15 | 99 | 4.8 | 8.0 | 0.00 | 0.00 | 0.00 | 41 | 1014.6 |
| 20260508064249 | 15 | 153 | 1.6 | 1.6 | 0.00 | 0.00 | 0.00 | 41 | 1014.9 |
| 20260508063746 | 15 | 106 | 1.6 | 3.2 | 0.00 | 0.00 | 0.00 | 41 | 1014.6 |
| 20260508063244 | 15 | 103 | 1.6 | 1.6 | 0.00 | 0.00 | 0.00 | 41 | 1014.6 |
| 20260508062741 | 15 | 125 | 1.6 | 3.2 | 0.00 | 0.00 | 0.00 | 41 | 1014.6 |
| 20260508062239 | 15 | 114 | 4.8 | 8.0 | 0.00 | 0.00 | 0.00 | 41 | 1014.9 |
| 20260508061735 | 15 | 96 | 6.4 | 8.0 | 0.00 | 0.00 | 0.00 | 41 | 1014.6 |
| 20260508061232 | 15 | 151 | 1.6 | 3.2 | 0.00 | 0.00 | 0.00 | 41 | 1014.9 |
| 20260508060729 | 15 | 113 | 4.8 | 4.8 | 0.00 | 0.00 | 0.00 | 41 | 1014.6 |
| 20260508060227 | 15 | 99 | 4.8 | 4.8 | 0.00 | 0.00 | 0.00 | 41 | 1014.6 |
| 20260508055722 | 15 | 128 | 1.6 | 3.2 | 0.00 | 0.00 | 0.00 | 41 | 1014.6 |
| 20260508055220 | 15 | 133 | 1.6 | 1.6 | 0.00 | 0.00 | 0.00 | 41 | 1014.6 |
| 20260508054716 | 15 | 116 | 1.6 | 1.6 | 0.00 | 0.00 | 0.00 | 40 | 1014.6 |
| 20260508054214 | 16 | 132 | 1.6 | 1.6 | 0.00 | 0.00 | 0.00 | 40 | 1014.6 |
| 20260508053710 | 15 | 98 | 1.6 | 3.2 | 0.00 | 0.00 | 0.00 | 40 | 1014.6 |
| 20260508053208 | 15 | 142 | 1.6 | 1.6 | 0.00 | 0.00 | 0.00 | 41 | 1014.6 |
| 20260508052705 | 15 | 123 | 0.0 | 0.0 | 0.00 | 0.00 | 0.00 | 42 | 1014.1 |
| 20260508052202 | 15 | 156 | 0.0 | 0.0 | 0.00 | 0.00 | 0.00 | 41 | 1014.6 |
| 20260508051658 | 16 | 156 | 0.0 | 0.0 | 0.00 | 0.00 | 0.00 | 41 | 1014.1 |
| 20260508051154 | 16 | 156 | 0.0 | 0.0 | 0.00 | 0.00 | 0.00 | 40 | 1014.6 |
| 20260508050650 | 16 | 163 | 0.0 | 0.0 | 0.00 | 0.00 | 0.00 | 40 | 1014.6 |
| 20260508050148 | 16 | 149 | 0.0 | 0.0 | 0.00 | 0.00 | 0.00 | 40 | 1014.1 |
| 20260508045643 | 17 | 175 | 0.0 | 0.0 | 0.00 | 0.00 | 0.00 | 39 | 1014.1 |
| 20260508045141 | 17 | 163 | 0.0 | 0.0 | 0.00 | 0.00 | 0.00 | 37 | 1014.1 |
| 20260508044638 | 17 | 86 | 1.6 | 3.2 | 0.00 | 0.00 | 0.00 | 38 | 1014.6 |
| 20260508044134 | 17 | 124 | 4.8 | 4.8 | 0.00 | 0.00 | 0.00 | 38 | 1014.6 |
| 20260508043631 | 17 | 151 | 1.6 | 3.2 | 0.00 | 0.00 | 0.00 | 38 | 1014.6 |
| 20260508043129 | 17 | 128 | 3.2 | 4.8 | 0.00 | 0.00 | 0.00 | 38 | 1014.1 |
| 20260508042625 | 17 | 108 | 1.6 | 1.6 | 0.00 | 0.00 | 0.00 | 37 | 1014.1 |
| 20260508042123 | 17 | 110 | 3.2 | 3.2 | 0.00 | 0.00 | 0.00 | 37 | 1014.1 |
| 20260508041618 | 17 | 141 | 0.0 | 1.6 | 0.00 | 0.00 | 0.00 | 37 | 1014.1 |
| 20260508041115 | 17 | 92 | 4.8 | 8.0 | 0.00 | 0.00 | 0.00 | 36 | 1014.6 |
| 20260508040612 | 17 | 119 | 1.6 | 1.6 | 0.00 | 0.00 | 0.00 | 37 | 1014.1 |
| 20260508040110 | 17 | 104 | 3.2 | 3.2 | 0.00 | 0.00 | 0.00 | 36 | 1014.1 |
| 20260508035607 | 17 | 150 | 1.6 | 1.6 | 0.00 | 0.00 | 0.00 | 36 | 1014.1 |
| 20260508035104 | 17 | 140 | 4.8 | 4.8 | 0.00 | 0.00 | 0.00 | 36 | 1013.8 |
| 20260508034601 | 17 | 141 | 3.2 | 4.8 | 0.00 | 0.00 | 0.00 | 37 | 1013.8 |
| 20260508034058 | 17 | 142 | 1.6 | 3.2 | 0.00 | 0.00 | 0.00 | 37 | 1013.8 |
| 20260508033555 | 18 | 124 | 1.6 | 1.6 | 0.00 | 0.00 | 0.00 | 37 | 1013.8 |
| 20260508033054 | 18 | 138 | 1.6 | 1.6 | 0.00 | 0.00 | 0.00 | 37 | 1013.8 |
| 20260508032549 | 18 | 129 | 1.6 | 1.6 | 0.00 | 0.00 | 0.00 | 36 | 1014.1 |
| 20260508032047 | 18 | 157 | 0.0 | 0.0 | 0.00 | 0.00 | 0.00 | 37 | 1013.8 |
| 20260508031544 | 18 | 151 | 1.6 | 3.2 | 0.00 | 0.00 | 0.00 | 37 | 1013.8 |
| 20260508031040 | 18 | 163 | 0.0 | 0.0 | 0.00 | 0.00 | 0.00 | 37 | 1013.4 |
| 20260508030537 | 18 | 153 | 0.0 | 0.0 | 0.00 | 0.00 | 0.00 | 38 | 1014.1 |
| 20260508030035 | 18 | 144 | 0.0 | 1.6 | 0.00 | 0.00 | 0.00 | 37 | 1013.8 |
| 20260508025530 | 18 | 154 | 0.0 | 0.0 | 0.00 | 0.00 | 0.00 | 37 | 1013.8 |
| 20260508025028 | 18 | 147 | 0.0 | 1.6 | 0.00 | 0.00 | 0.00 | 37 | 1013.8 |
| 20260508024524 | 18 | 156 | 0.0 | 0.0 | 0.00 | 0.00 | 0.00 | 38 | 1013.4 |
| 20260508024021 | 19 | 157 | 0.0 | 0.0 | 0.00 | 0.00 | 0.00 | 38 | 1013.4 |
| 20260508023517 | 20 | 157 | 0.0 | 0.0 | 0.00 | 0.00 | 0.00 | 37 | 1013.8 |
| 20260508023015 | 20 | 157 | 0.0 | 0.0 | 0.00 | 0.00 | 0.00 | 34 | 1013.8 |
| 20260508022510 | 21 | 157 | 0.0 | 0.0 | 0.00 | 0.00 | 0.00 | 33 | 1013.8 |
| 20260508022008 | 21 | 157 | 0.0 | 0.0 | 0.00 | 0.00 | 0.00 | 32 | 1013.4 |
| 20260508021503 | 21 | 157 | 0.0 | 0.0 | 0.00 | 0.00 | 0.00 | 30 | 1013.4 |
| 20260508020959 | 22 | 155 | 0.0 | 0.0 | 0.00 | 0.00 | 0.00 | 29 | 1013.8 |
| 20260508020457 | 22 | 157 | 0.0 | 0.0 | 0.00 | 0.00 | 0.00 | 29 | 1013.8 |
| 20260508015954 | 22 | 157 | 0.0 | 0.0 | 0.00 | 0.00 | 0.00 | 29 | 1013.4 |
| 20260508015452 | 22 | 157 | 0.0 | 0.0 | 0.00 | 0.00 | 0.00 | 29 | 1013.4 |
| 20260508014949 | 22 | 157 | 0.0 | 0.0 | 0.00 | 0.00 | 0.00 | 28 | 1013.4 |
| 20260508014445 | 23 | 157 | 0.0 | 0.0 | 0.00 | 0.00 | 0.00 | 27 | 1013.4 |
| 20260508013941 | 23 | 175 | 0.0 | 0.0 | 0.00 | 0.00 | 0.00 | 27 | 1013.4 |
| 20260508013437 | 23 | 189 | 1.6 | 1.6 | 0.00 | 0.00 | 0.00 | 26 | 1013.4 |
| 20260508012935 | 23 | 162 | 1.6 | 3.2 | 0.00 | 0.00 | 0.00 | 27 | 1013.4 |
| 20260508012432 | 22 | 178 | 1.6 | 1.6 | 0.00 | 0.00 | 0.00 | 27 | 1013.4 |
| 20260508011929 | 23 | 169 | 1.6 | 1.6 | 0.00 | 0.00 | 0.00 | 26 | 1013.4 |
| 20260508011427 | 22 | 179 | 0.0 | 1.6 | 0.00 | 0.00 | 0.00 | 26 | 1013.4 |
| 20260508010924 | 23 | 197 | 1.6 | 1.6 | 0.00 | 0.00 | 0.00 | 27 | 1013.4 |
| 20260508010421 | 23 | 184 | 1.6 | 1.6 | 0.00 | 0.00 | 0.00 | 27 | 1013.8 |
| 20260508005918 | 23 | 165 | 0.0 | 0.0 | 0.00 | 0.00 | 0.00 | 27 | 1013.4 |
| 20260508005415 | 23 | 138 | 3.2 | 3.2 | 0.00 | 0.00 | 0.00 | 26 | 1013.4 |
| 20260508004911 | 23 | 177 | 0.0 | 1.6 | 0.00 | 0.00 | 0.00 | 25 | 1013.4 |
| 20260508004408 | 23 | 221 | 3.2 | 3.2 | 0.00 | 0.00 | 0.00 | 26 | 1013.8 |
| 20260508003904 | 23 | 187 | 1.6 | 1.6 | 0.00 | 0.00 | 0.00 | 26 | 1013.8 |
| 20260508003401 | 23 | 168 | 1.6 | 3.2 | 0.00 | 0.00 | 0.00 | 25 | 1013.8 |
| 20260508002858 | 23 | 350 | 4.8 | 4.8 | 0.00 | 0.00 | 0.00 | 25 | 1013.8 |
| 20260508002355 | 23 | 142 | 1.6 | 1.6 | 0.00 | 0.00 | 0.00 | 26 | 1013.8 |
| 20260508001851 | 23 | 191 | 0.0 | 0.0 | 0.00 | 0.00 | 0.00 | 26 | 1013.8 |
| 20260508001347 | 23 | 226 | 3.2 | 3.2 | 0.00 | 0.00 | 0.00 | 26 | 1013.8 |
| 20260508000844 | 22 | 175 | 0.0 | 0.0 | 0.00 | 0.00 | 0.00 | 27 | 1014.1 |
| 20260508000342 | 22 | 157 | 0.0 | 0.0 | 0.00 | 0.00 | 0.00 | 27 | 1013.8 |
| 20260507235837 | 22 | 251 | 4.8 | 4.8 | 0.00 | 0.00 | 0.00 | 26 | 1014.1 |
| 20260507235335 | 22 | 154 | 0.0 | 0.0 | 0.00 | 0.00 | 0.00 | 27 | 1013.8 |
| 20260507234831 | 22 | 153 | 1.6 | 1.6 | 0.00 | 0.00 | 0.00 | 27 | 1014.1 |
| 20260507234328 | 22 | 173 | 0.0 | 1.6 | 0.00 | 0.00 | 0.00 | 27 | 1014.1 |
| 20260507233824 | 22 | 140 | 0.0 | 0.0 | 0.00 | 0.00 | 0.00 | 27 | 1014.1 |
| 20260507233322 | 22 | 96 | 0.0 | 0.0 | 0.00 | 0.00 | 0.00 | 27 | 1014.1 |
| 20260507232820 | 23 | 185 | 1.6 | 1.6 | 0.00 | 0.00 | 0.00 | 26 | 1014.1 |
| 20260507232316 | 23 | 170 | 0.0 | 0.0 | 0.00 | 0.00 | 0.00 | 27 | 1014.1 |
| 20260507231813 | 22 | 162 | 1.6 | 3.2 | 0.00 | 0.00 | 0.00 | 27 | 1014.6 |
| 20260507231310 | 23 | 224 | 4.8 | 4.8 | 0.00 | 0.00 | 0.00 | 27 | 1014.1 |
| 20260507230806 | 23 | 219 | 3.2 | 3.2 | 0.00 | 0.00 | 0.00 | 25 | 1014.6 |
| 20260507230304 | 23 | 265 | 4.8 | 4.8 | 0.00 | 0.00 | 0.00 | 27 | 1014.6 |
| 20260507225803 | 22 | 198 | 1.6 | 1.6 | 0.00 | 0.00 | 0.00 | 26 | 1014.6 |
| 20260507225259 | 23 | 260 | 8.0 | 9.7 | 0.00 | 0.00 | 0.00 | 26 | 1014.9 |
| 20260507224755 | 23 | 169 | 1.6 | 1.6 | 0.00 | 0.00 | 0.00 | 26 | 1014.9 |
| 20260507224253 | 23 | 250 | 6.4 | 9.7 | 0.00 | 0.00 | 0.00 | 27 | 1014.6 |
| 20260507223749 | 23 | 162 | 1.6 | 3.2 | 0.00 | 0.00 | 0.00 | 27 | 1014.9 |
| 20260507223245 | 23 | 129 | 3.2 | 3.2 | 0.00 | 0.00 | 0.00 | 27 | 1015.3 |
| 20260507222743 | 23 | 48 | 3.2 | 3.2 | 0.00 | 0.00 | 0.00 | 28 | 1015.3 |
| 20260507222238 | 23 | 116 | 1.6 | 3.2 | 0.00 | 0.00 | 0.00 | 27 | 1015.3 |
| 20260507221736 | 23 | 55 | 4.8 | 4.8 | 0.00 | 0.00 | 0.00 | 28 | 1014.9 |
| 20260507221232 | 23 | 192 | 4.8 | 4.8 | 0.00 | 0.00 | 0.00 | 27 | 1015.3 |
| 20260507220728 | 23 | 347 | 6.4 | 9.7 | 0.00 | 0.00 | 0.00 | 27 | 1015.3 |
| 20260507220227 | 23 | 336 | 4.8 | 8.0 | 0.00 | 0.00 | 0.00 | 27 | 1015.3 |
| 20260507215722 | 23 | 249 | 11.3 | 14.5 | 0.00 | 0.00 | 0.00 | 26 | 1015.3 |
| 20260507215220 | 23 | 167 | 1.6 | 1.6 | 0.00 | 0.00 | 0.00 | 26 | 1015.7 |
| 20260507214717 | 22 | 195 | 1.6 | 1.6 | 0.00 | 0.00 | 0.00 | 27 | 1015.7 |
| 20260507214214 | 23 | 336 | 4.8 | 8.0 | 0.00 | 0.00 | 0.00 | 28 | 1015.7 |